sensor_id;sensor_type;location;lat;lon;timestamp;temperature;humidity
11387;DHT22;5748;53.102;8.456;2023-10-19T00:00:30;11.00;54.90
11387;DHT22;5748;53.102;8.456;2023-10-19T00:02:59;12.70;56.30
11387;DHT22;5748;53.102;8.456;2023-10-19T00:05:28;12.70;56.60
11387;DHT22;5748;53.102;8.456;2023-10-19T00:07:55;12.70;57.10
11387;DHT22;5748;53.102;8.456;2023-10-19T00:10:26;12.60;57.40
11387;DHT22;5748;53.102;8.456;2023-10-19T00:12:55;12.60;57.00
11387;DHT22;5748;53.102;8.456;2023-10-19T00:15:25;12.60;56.80
11387;DHT22;5748;53.102;8.456;2023-10-19T00:17:56;12.50;56.80
11387;DHT22;5748;53.102;8.456;2023-10-19T00:20:24;12.50;56.80
11387;DHT22;5748;53.102;8.456;2023-10-19T00:23:01;12.50;57.00
11387;DHT22;5748;53.102;8.456;2023-10-19T00:25:32;12.40;57.10
11387;DHT22;5748;53.102;8.456;2023-10-19T00:28:00;12.40;57.20
11387;DHT22;5748;53.102;8.456;2023-10-19T00:30:29;12.30;57.10
11387;DHT22;5748;53.102;8.456;2023-10-19T00:33:01;10.00;55.50
11387;DHT22;5748;53.102;8.456;2023-10-19T00:35:30;12.30;57.40
11387;DHT22;5748;53.102;8.456;2023-10-19T00:38:02;12.30;57.50
11387;DHT22;5748;53.102;8.456;2023-10-19T00:40:54;12.20;57.30
11387;DHT22;5748;53.102;8.456;2023-10-19T00:43:29;12.20;57.40
11387;DHT22;5748;53.102;8.456;2023-10-19T00:46:00;12.20;57.80
11387;DHT22;5748;53.102;8.456;2023-10-19T00:48:34;12.20;57.50
11387;DHT22;5748;53.102;8.456;2023-10-19T00:51:02;12.10;57.50
11387;DHT22;5748;53.102;8.456;2023-10-19T00:53:35;12.10;58.10
11387;DHT22;5748;53.102;8.456;2023-10-19T00:56:07;12.00;58.10
11387;DHT22;5748;53.102;8.456;2023-10-19T00:58:37;12.00;58.00
11387;DHT22;5748;53.102;8.456;2023-10-19T01:01:06;11.90;58.30
11387;DHT22;5748;53.102;8.456;2023-10-19T01:03:35;11.90;57.80
11387;DHT22;5748;53.102;8.456;2023-10-19T01:06:04;11.90;58.20
11387;DHT22;5748;53.102;8.456;2023-10-19T01:08:38;11.90;58.00
11387;DHT22;5748;53.102;8.456;2023-10-19T01:11:11;11.90;58.50
11387;DHT22;5748;53.102;8.456;2023-10-19T01:13:41;11.80;58.60
11387;DHT22;5748;53.102;8.456;2023-10-19T01:16:12;11.80;59.20
11387;DHT22;5748;53.102;8.456;2023-10-19T01:18:46;11.70;58.90
11387;DHT22;5748;53.102;8.456;2023-10-19T01:21:16;11.70;58.60
11387;DHT22;5748;53.102;8.456;2023-10-19T01:23:48;11.70;58.30
11387;DHT22;5748;53.102;8.456;2023-10-19T01:26:14;11.60;58.60
11387;DHT22;5748;53.102;8.456;2023-10-19T01:28:47;11.60;58.90
11387;DHT22;5748;53.102;8.456;2023-10-19T01:31:18;11.50;58.70
11387;DHT22;5748;53.102;8.456;2023-10-19T01:33:57;11.50;59.60
11387;DHT22;5748;53.102;8.456;2023-10-19T01:36:27;11.50;59.60
11387;DHT22;5748;53.102;8.456;2023-10-19T01:38:56;11.40;58.90
11387;DHT22;5748;53.102;8.456;2023-10-19T01:41:26;11.40;58.90
11387;DHT22;5748;53.102;8.456;2023-10-19T01:43:56;11.40;59.30
11387;DHT22;5748;53.102;8.456;2023-10-19T01:46:30;11.40;59.20
11387;DHT22;5748;53.102;8.456;2023-10-19T01:48:59;11.30;59.40
11387;DHT22;5748;53.102;8.456;2023-10-19T01:51:29;11.30;59.20
11387;DHT22;5748;53.102;8.456;2023-10-19T01:53:59;11.30;59.50
11387;DHT22;5748;53.102;8.456;2023-10-19T01:56:26;11.30;59.90
11387;DHT22;5748;53.102;8.456;2023-10-19T01:58:54;11.20;60.70
11387;DHT22;5748;53.102;8.456;2023-10-19T02:01:20;11.20;59.80
11387;DHT22;5748;53.102;8.456;2023-10-19T02:03:55;11.20;60.00
11387;DHT22;5748;53.102;8.456;2023-10-19T02:06:24;11.20;60.30
11387;DHT22;5748;53.102;8.456;2023-10-19T02:09:04;11.20;60.40
11387;DHT22;5748;53.102;8.456;2023-10-19T02:11:35;11.20;60.20
11387;DHT22;5748;53.102;8.456;2023-10-19T02:14:03;11.20;60.20
11387;DHT22;5748;53.102;8.456;2023-10-19T02:16:37;11.60;60.70
11387;DHT22;5748;53.102;8.456;2023-10-19T02:19:04;11.20;60.50
11387;DHT22;5748;53.102;8.456;2023-10-19T02:21:30;11.20;59.90
11387;DHT22;5748;53.102;8.456;2023-10-19T02:23:57;11.20;61.40
11387;DHT22;5748;53.102;8.456;2023-10-19T02:26:25;11.20;60.70
11387;DHT22;5748;53.102;8.456;2023-10-19T02:28:53;11.10;61.50
11387;DHT22;5748;53.102;8.456;2023-10-19T02:31:22;11.10;60.70
11387;DHT22;5748;53.102;8.456;2023-10-19T02:33:51;11.10;61.00
11387;DHT22;5748;53.102;8.456;2023-10-19T02:36:24;11.10;61.20
11387;DHT22;5748;53.102;8.456;2023-10-19T02:38:54;11.10;61.10
11387;DHT22;5748;53.102;8.456;2023-10-19T02:41:20;11.10;61.00
11387;DHT22;5748;53.102;8.456;2023-10-19T02:43:48;11.10;60.80
11387;DHT22;5748;53.102;8.456;2023-10-19T02:46:17;11.10;61.30
11387;DHT22;5748;53.102;8.456;2023-10-19T02:48:44;11.10;60.80
11387;DHT22;5748;53.102;8.456;2023-10-19T02:51:11;11.10;61.40
11387;DHT22;5748;53.102;8.456;2023-10-19T02:53:39;11.10;61.30
11387;DHT22;5748;53.102;8.456;2023-10-19T02:56:10;11.10;61.60
11387;DHT22;5748;53.102;8.456;2023-10-19T02:58:40;11.10;62.10
11387;DHT22;5748;53.102;8.456;2023-10-19T03:01:15;11.10;60.80
11387;DHT22;5748;53.102;8.456;2023-10-19T03:03:44;11.10;61.20
11387;DHT22;5748;53.102;8.456;2023-10-19T03:06:12;11.10;60.80
11387;DHT22;5748;53.102;8.456;2023-10-19T03:08:38;11.10;62.70
11387;DHT22;5748;53.102;8.456;2023-10-19T03:11:05;11.10;62.70
11387;DHT22;5748;53.102;8.456;2023-10-19T03:13:31;11.00;61.50
11387;DHT22;5748;53.102;8.456;2023-10-19T03:16:00;11.10;61.40
11387;DHT22;5748;53.102;8.456;2023-10-19T03:18:27;11.00;61.80
11387;DHT22;5748;53.102;8.456;2023-10-19T03:20:55;11.20;61.40
11387;DHT22;5748;53.102;8.456;2023-10-19T03:23:20;11.20;61.50
11387;DHT22;5748;53.102;8.456;2023-10-19T03:25:54;11.10;61.60
11387;DHT22;5748;53.102;8.456;2023-10-19T03:28:44;11.10;61.50
11387;DHT22;5748;53.102;8.456;2023-10-19T03:31:11;11.20;61.80
11387;DHT22;5748;53.102;8.456;2023-10-19T03:33:44;11.10;62.00
11387;DHT22;5748;53.102;8.456;2023-10-19T03:36:14;11.10;61.20
11387;DHT22;5748;53.102;8.456;2023-10-19T03:38:40;11.10;61.10
11387;DHT22;5748;53.102;8.456;2023-10-19T03:41:09;11.10;62.40
11387;DHT22;5748;53.102;8.456;2023-10-19T03:43:36;11.10;62.30
11387;DHT22;5748;53.102;8.456;2023-10-19T03:46:05;11.10;62.20
11387;DHT22;5748;53.102;8.456;2023-10-19T03:48:45;11.10;61.90
11387;DHT22;5748;53.102;8.456;2023-10-19T03:51:13;11.10;62.90
11387;DHT22;5748;53.102;8.456;2023-10-19T03:53:41;11.10;62.20
11387;DHT22;5748;53.102;8.456;2023-10-19T03:56:12;11.10;61.60
11387;DHT22;5748;53.102;8.456;2023-10-19T03:58:38;11.10;62.90
11387;DHT22;5748;53.102;8.456;2023-10-19T04:01:08;11.10;63.00
11387;DHT22;5748;53.102;8.456;2023-10-19T04:03:36;11.10;62.40
11387;DHT22;5748;53.102;8.456;2023-10-19T04:06:05;11.10;62.30
11387;DHT22;5748;53.102;8.456;2023-10-19T04:08:33;11.10;62.40
11387;DHT22;5748;53.102;8.456;2023-10-19T04:11:03;11.10;62.50
11387;DHT22;5748;53.102;8.456;2023-10-19T04:13:37;11.10;62.10
11387;DHT22;5748;53.102;8.456;2023-10-19T04:16:04;11.10;62.00
11387;DHT22;5748;53.102;8.456;2023-10-19T04:18:34;11.10;62.20
11387;DHT22;5748;53.102;8.456;2023-10-19T04:21:05;11.10;62.20
11387;DHT22;5748;53.102;8.456;2023-10-19T04:23:31;11.10;62.30
11387;DHT22;5748;53.102;8.456;2023-10-19T04:26:02;11.10;62.00
11387;DHT22;5748;53.102;8.456;2023-10-19T04:28:37;11.10;62.50
11387;DHT22;5748;53.102;8.456;2023-10-19T04:31:11;11.10;62.00
11387;DHT22;5748;53.102;8.456;2023-10-19T04:33:41;11.10;62.10
11387;DHT22;5748;53.102;8.456;2023-10-19T04:36:13;11.20;62.70
11387;DHT22;5748;53.102;8.456;2023-10-19T04:38:40;11.20;62.00
11387;DHT22;5748;53.102;8.456;2023-10-19T04:41:10;11.20;62.30
11387;DHT22;5748;53.102;8.456;2023-10-19T04:43:38;11.20;62.30
11387;DHT22;5748;53.102;8.456;2023-10-19T04:46:07;11.20;62.20
11387;DHT22;5748;53.102;8.456;2023-10-19T04:48:37;9.20;62.10
11387;DHT22;5748;53.102;8.456;2023-10-19T04:51:06;11.20;62.50
11387;DHT22;5748;53.102;8.456;2023-10-19T04:53:36;11.20;62.30
11387;DHT22;5748;53.102;8.456;2023-10-19T04:56:05;11.20;62.90
11387;DHT22;5748;53.102;8.456;2023-10-19T04:58:35;11.20;62.50
11387;DHT22;5748;53.102;8.456;2023-10-19T05:01:02;11.20;62.10
11387;DHT22;5748;53.102;8.456;2023-10-19T05:03:29;11.20;61.90
11387;DHT22;5748;53.102;8.456;2023-10-19T05:05:56;11.20;62.60
11387;DHT22;5748;53.102;8.456;2023-10-19T05:08:24;11.20;62.60
11387;DHT22;5748;53.102;8.456;2023-10-19T05:10:55;11.20;62.70
11387;DHT22;5748;53.102;8.456;2023-10-19T05:13:25;11.30;62.60
11387;DHT22;5748;53.102;8.456;2023-10-19T05:15:53;10.60;61.80
11387;DHT22;5748;53.102;8.456;2023-10-19T05:18:21;11.30;63.10
11387;DHT22;5748;53.102;8.456;2023-10-19T05:20:48;11.30;62.40
11387;DHT22;5748;53.102;8.456;2023-10-19T05:23:21;11.30;62.90
11387;DHT22;5748;53.102;8.456;2023-10-19T05:25:49;11.30;62.80
11387;DHT22;5748;53.102;8.456;2023-10-19T05:28:19;11.30;62.40
11387;DHT22;5748;53.102;8.456;2023-10-19T05:30:47;12.30;63.10
11387;DHT22;5748;53.102;8.456;2023-10-19T05:33:15;11.30;62.30
11387;DHT22;5748;53.102;8.456;2023-10-19T05:35:42;11.30;62.20
11387;DHT22;5748;53.102;8.456;2023-10-19T05:38:09;11.30;62.00
11387;DHT22;5748;53.102;8.456;2023-10-19T05:40:36;11.30;62.00
11387;DHT22;5748;53.102;8.456;2023-10-19T05:43:04;11.30;62.20
11387;DHT22;5748;53.102;8.456;2023-10-19T05:45:34;11.30;62.30
11387;DHT22;5748;53.102;8.456;2023-10-19T05:48:02;11.30;62.30
11387;DHT22;5748;53.102;8.456;2023-10-19T05:50:32;11.30;62.30
11387;DHT22;5748;53.102;8.456;2023-10-19T05:52:58;11.30;62.80
11387;DHT22;5748;53.102;8.456;2023-10-19T05:55:26;11.30;62.60
11387;DHT22;5748;53.102;8.456;2023-10-19T05:57:54;11.30;62.60
11387;DHT22;5748;53.102;8.456;2023-10-19T06:00:22;11.30;62.60
11387;DHT22;5748;53.102;8.456;2023-10-19T06:02:52;11.30;62.50
11387;DHT22;5748;53.102;8.456;2023-10-19T06:05:19;11.30;63.40
11387;DHT22;5748;53.102;8.456;2023-10-19T06:07:47;11.30;63.20
11387;DHT22;5748;53.102;8.456;2023-10-19T06:10:17;11.40;63.50
11387;DHT22;5748;53.102;8.456;2023-10-19T06:12:47;11.30;63.10
11387;DHT22;5748;53.102;8.456;2023-10-19T06:15:16;11.30;63.10
11387;DHT22;5748;53.102;8.456;2023-10-19T06:17:44;11.30;63.20
11387;DHT22;5748;53.102;8.456;2023-10-19T06:20:13;11.30;62.80
11387;DHT22;5748;53.102;8.456;2023-10-19T06:22:49;11.30;63.10
11387;DHT22;5748;53.102;8.456;2023-10-19T06:25:17;11.30;62.80
11387;DHT22;5748;53.102;8.456;2023-10-19T06:27:45;11.20;63.10
11387;DHT22;5748;53.102;8.456;2023-10-19T06:30:13;11.30;63.80
11387;DHT22;5748;53.102;8.456;2023-10-19T06:32:45;11.30;63.20
11387;DHT22;5748;53.102;8.456;2023-10-19T06:35:14;11.30;64.00
11387;DHT22;5748;53.102;8.456;2023-10-19T06:37:41;11.30;63.30
11387;DHT22;5748;53.102;8.456;2023-10-19T06:40:10;11.30;63.40
11387;DHT22;5748;53.102;8.456;2023-10-19T06:42:39;11.30;63.40
11387;DHT22;5748;53.102;8.456;2023-10-19T06:45:07;11.30;63.80
11387;DHT22;5748;53.102;8.456;2023-10-19T06:47:35;11.30;63.40
11387;DHT22;5748;53.102;8.456;2023-10-19T06:50:04;11.30;63.10
11387;DHT22;5748;53.102;8.456;2023-10-19T06:52:37;11.30;63.10
11387;DHT22;5748;53.102;8.456;2023-10-19T06:55:04;11.30;63.60
11387;DHT22;5748;53.102;8.456;2023-10-19T06:57:39;11.30;63.10
11387;DHT22;5748;53.102;8.456;2023-10-19T07:00:09;11.30;63.10
11387;DHT22;5748;53.102;8.456;2023-10-19T07:02:40;11.30;63.20
11387;DHT22;5748;53.102;8.456;2023-10-19T07:05:08;11.30;63.70
11387;DHT22;5748;53.102;8.456;2023-10-19T07:07:39;11.30;63.80
11387;DHT22;5748;53.102;8.456;2023-10-19T07:10:07;11.30;63.70
11387;DHT22;5748;53.102;8.456;2023-10-19T07:12:35;11.30;63.70
11387;DHT22;5748;53.102;8.456;2023-10-19T07:15:04;11.30;64.10
11387;DHT22;5748;53.102;8.456;2023-10-19T07:17:33;11.30;64.20
11387;DHT22;5748;53.102;8.456;2023-10-19T07:20:01;11.30;64.00
11387;DHT22;5748;53.102;8.456;2023-10-19T07:22:31;11.30;64.00
11387;DHT22;5748;53.102;8.456;2023-10-19T07:24:59;11.30;63.80
11387;DHT22;5748;53.102;8.456;2023-10-19T07:27:31;11.30;63.60
11387;DHT22;5748;53.102;8.456;2023-10-19T07:29:59;11.30;64.00
11387;DHT22;5748;53.102;8.456;2023-10-19T07:32:26;11.30;63.70
11387;DHT22;5748;53.102;8.456;2023-10-19T07:34:53;11.30;64.60
11387;DHT22;5748;53.102;8.456;2023-10-19T07:37:21;11.40;63.90
11387;DHT22;5748;53.102;8.456;2023-10-19T07:39:48;11.40;64.40
11387;DHT22;5748;53.102;8.456;2023-10-19T07:42:18;11.40;64.70
11387;DHT22;5748;53.102;8.456;2023-10-19T07:44:47;11.40;64.80
11387;DHT22;5748;53.102;8.456;2023-10-19T07:47:15;11.40;64.90
11387;DHT22;5748;53.102;8.456;2023-10-19T07:49:41;11.40;64.50
11387;DHT22;5748;53.102;8.456;2023-10-19T07:52:08;11.40;64.80
11387;DHT22;5748;53.102;8.456;2023-10-19T07:54:36;11.40;65.10
11387;DHT22;5748;53.102;8.456;2023-10-19T07:57:04;11.40;64.30
11387;DHT22;5748;53.102;8.456;2023-10-19T07:59:33;11.40;64.30
11387;DHT22;5748;53.102;8.456;2023-10-19T08:02:01;11.40;64.50
11387;DHT22;5748;53.102;8.456;2023-10-19T08:04:29;11.40;64.80
11387;DHT22;5748;53.102;8.456;2023-10-19T08:06:56;11.40;64.40
11387;DHT22;5748;53.102;8.456;2023-10-19T08:09:24;11.40;64.40
11387;DHT22;5748;53.102;8.456;2023-10-19T08:11:57;11.40;64.10
11387;DHT22;5748;53.102;8.456;2023-10-19T08:14:24;11.40;64.20
11387;DHT22;5748;53.102;8.456;2023-10-19T08:16:53;11.40;64.40
11387;DHT22;5748;53.102;8.456;2023-10-19T08:19:22;11.40;65.20
11387;DHT22;5748;53.102;8.456;2023-10-19T08:21:49;11.40;64.40
11387;DHT22;5748;53.102;8.456;2023-10-19T08:24:16;11.50;64.90
11387;DHT22;5748;53.102;8.456;2023-10-19T08:26:44;11.50;64.80
11387;DHT22;5748;53.102;8.456;2023-10-19T08:29:12;11.50;65.00
11387;DHT22;5748;53.102;8.456;2023-10-19T08:31:39;11.50;65.50
11387;DHT22;5748;53.102;8.456;2023-10-19T08:34:08;11.50;65.80
11387;DHT22;5748;53.102;8.456;2023-10-19T08:36:36;11.50;65.30
11387;DHT22;5748;53.102;8.456;2023-10-19T08:39:04;11.50;65.00
11387;DHT22;5748;53.102;8.456;2023-10-19T08:41:32;11.50;64.90
11387;DHT22;5748;53.102;8.456;2023-10-19T08:44:00;11.50;64.80
11387;DHT22;5748;53.102;8.456;2023-10-19T08:46:28;11.60;64.80
11387;DHT22;5748;53.102;8.456;2023-10-19T08:48:55;11.60;65.30
11387;DHT22;5748;53.102;8.456;2023-10-19T08:51:25;11.60;65.00
11387;DHT22;5748;53.102;8.456;2023-10-19T08:53:54;11.60;64.90
11387;DHT22;5748;53.102;8.456;2023-10-19T08:56:22;11.70;65.00
11387;DHT22;5748;53.102;8.456;2023-10-19T08:58:51;11.70;64.80
11387;DHT22;5748;53.102;8.456;2023-10-19T09:01:18;11.70;64.80
11387;DHT22;5748;53.102;8.456;2023-10-19T09:03:50;11.70;64.80
11387;DHT22;5748;53.102;8.456;2023-10-19T09:06:17;11.80;65.10
11387;DHT22;5748;53.102;8.456;2023-10-19T09:08:47;11.80;64.80
11387;DHT22;5748;53.102;8.456;2023-10-19T09:11:14;11.80;65.20
11387;DHT22;5748;53.102;8.456;2023-10-19T09:13:45;11.80;65.50
11387;DHT22;5748;53.102;8.456;2023-10-19T09:16:14;11.80;65.60
11387;DHT22;5748;53.102;8.456;2023-10-19T09:18:42;11.80;66.20
11387;DHT22;5748;53.102;8.456;2023-10-19T09:21:10;11.80;65.20
11387;DHT22;5748;53.102;8.456;2023-10-19T09:23:51;11.80;65.30
11387;DHT22;5748;53.102;8.456;2023-10-19T09:26:19;11.90;65.90
11387;DHT22;5748;53.102;8.456;2023-10-19T09:28:48;11.90;65.50
11387;DHT22;5748;53.102;8.456;2023-10-19T09:31:16;11.80;65.30
11387;DHT22;5748;53.102;8.456;2023-10-19T09:33:46;11.90;65.30
11387;DHT22;5748;53.102;8.456;2023-10-19T09:36:15;11.80;65.60
11387;DHT22;5748;53.102;8.456;2023-10-19T09:38:46;11.90;65.40
11387;DHT22;5748;53.102;8.456;2023-10-19T09:41:18;11.90;65.40
11387;DHT22;5748;53.102;8.456;2023-10-19T09:43:48;12.00;65.30
11387;DHT22;5748;53.102;8.456;2023-10-19T09:46:21;13.90;67.20
11387;DHT22;5748;53.102;8.456;2023-10-19T09:48:49;12.00;66.60
11387;DHT22;5748;53.102;8.456;2023-10-19T09:51:19;11.90;66.00
11387;DHT22;5748;53.102;8.456;2023-10-19T09:53:51;12.00;65.90
11387;DHT22;5748;53.102;8.456;2023-10-19T09:56:41;12.00;65.70
11387;DHT22;5748;53.102;8.456;2023-10-19T09:59:18;12.00;65.70
11387;DHT22;5748;53.102;8.456;2023-10-19T10:02:10;12.00;65.70
11387;DHT22;5748;53.102;8.456;2023-10-19T10:04:39;12.00;66.10
11387;DHT22;5748;53.102;8.456;2023-10-19T10:07:07;12.10;65.20
11387;DHT22;5748;53.102;8.456;2023-10-19T10:09:36;12.00;65.50
11387;DHT22;5748;53.102;8.456;2023-10-19T10:12:18;12.10;65.50
11387;DHT22;5748;53.102;8.456;2023-10-19T10:14:57;12.10;65.70
11387;DHT22;5748;53.102;8.456;2023-10-19T10:17:25;12.10;66.20
11387;DHT22;5748;53.102;8.456;2023-10-19T10:20:29;12.20;66.10
11387;DHT22;5748;53.102;8.456;2023-10-19T10:23:17;12.20;66.30
11387;DHT22;5748;53.102;8.456;2023-10-19T10:25:47;12.20;66.10
11387;DHT22;5748;53.102;8.456;2023-10-19T10:28:16;12.20;65.70
11387;DHT22;5748;53.102;8.456;2023-10-19T10:31:13;12.30;65.70
11387;DHT22;5748;53.102;8.456;2023-10-19T10:33:43;12.30;66.10
11387;DHT22;5748;53.102;8.456;2023-10-19T10:36:12;12.30;65.50
11387;DHT22;5748;53.102;8.456;2023-10-19T10:38:39;12.30;65.60
11387;DHT22;5748;53.102;8.456;2023-10-19T10:41:07;12.30;65.70
11387;DHT22;5748;53.102;8.456;2023-10-19T10:43:54;12.50;65.80
11387;DHT22;5748;53.102;8.456;2023-10-19T10:46:23;12.40;66.00
11387;DHT22;5748;53.102;8.456;2023-10-19T10:48:51;12.40;65.70
11387;DHT22;5748;53.102;8.456;2023-10-19T10:51:19;12.40;65.80
11387;DHT22;5748;53.102;8.456;2023-10-19T10:53:48;12.40;65.70
11387;DHT22;5748;53.102;8.456;2023-10-19T10:56:17;12.40;65.90
11387;DHT22;5748;53.102;8.456;2023-10-19T10:58:44;12.50;66.20
11387;DHT22;5748;53.102;8.456;2023-10-19T11:01:13;12.50;66.10
11387;DHT22;5748;53.102;8.456;2023-10-19T11:03:41;12.50;66.00
11387;DHT22;5748;53.102;8.456;2023-10-19T11:06:09;12.50;66.00
11387;DHT22;5748;53.102;8.456;2023-10-19T11:08:37;12.50;66.00
11387;DHT22;5748;53.102;8.456;2023-10-19T11:11:06;12.50;66.00
11387;DHT22;5748;53.102;8.456;2023-10-19T11:13:36;12.50;66.20
11387;DHT22;5748;53.102;8.456;2023-10-19T11:16:05;12.60;66.20
11387;DHT22;5748;53.102;8.456;2023-10-19T11:18:38;12.60;66.60
11387;DHT22;5748;53.102;8.456;2023-10-19T11:21:07;12.60;66.60
11387;DHT22;5748;53.102;8.456;2023-10-19T11:23:42;12.70;66.30
11387;DHT22;5748;53.102;8.456;2023-10-19T11:26:11;12.70;66.20
11387;DHT22;5748;53.102;8.456;2023-10-19T11:28:39;12.70;66.50
11387;DHT22;5748;53.102;8.456;2023-10-19T11:31:13;12.70;66.20
11387;DHT22;5748;53.102;8.456;2023-10-19T11:33:44;12.70;66.10
11387;DHT22;5748;53.102;8.456;2023-10-19T11:36:14;12.70;66.00
11387;DHT22;5748;53.102;8.456;2023-10-19T11:38:42;12.70;66.30
11387;DHT22;5748;53.102;8.456;2023-10-19T11:41:10;12.80;66.10
11387;DHT22;5748;53.102;8.456;2023-10-19T11:43:39;12.80;66.00
11387;DHT22;5748;53.102;8.456;2023-10-19T11:46:06;12.80;66.10
11387;DHT22;5748;53.102;8.456;2023-10-19T11:48:34;12.80;65.80
11387;DHT22;5748;53.102;8.456;2023-10-19T11:51:03;12.80;65.80
11387;DHT22;5748;53.102;8.456;2023-10-19T11:53:34;12.80;65.80
11387;DHT22;5748;53.102;8.456;2023-10-19T11:56:03;12.80;65.90
11387;DHT22;5748;53.102;8.456;2023-10-19T11:58:31;12.80;65.80
11387;DHT22;5748;53.102;8.456;2023-10-19T12:01:00;12.80;65.80
11387;DHT22;5748;53.102;8.456;2023-10-19T12:03:28;12.80;65.80
11387;DHT22;5748;53.102;8.456;2023-10-19T12:05:56;12.80;65.90
11387;DHT22;5748;53.102;8.456;2023-10-19T12:08:24;12.80;65.80
11387;DHT22;5748;53.102;8.456;2023-10-19T12:10:51;12.80;65.80
11387;DHT22;5748;53.102;8.456;2023-10-19T12:13:18;12.80;65.80
11387;DHT22;5748;53.102;8.456;2023-10-19T12:15:45;12.80;65.90
11387;DHT22;5748;53.102;8.456;2023-10-19T12:18:18;12.80;65.90
11387;DHT22;5748;53.102;8.456;2023-10-19T12:20:46;12.80;65.90
11387;DHT22;5748;53.102;8.456;2023-10-19T12:23:13;12.80;65.90
11387;DHT22;5748;53.102;8.456;2023-10-19T12:25:42;12.80;66.20
11387;DHT22;5748;53.102;8.456;2023-10-19T12:28:09;12.80;65.90
11387;DHT22;5748;53.102;8.456;2023-10-19T12:30:42;12.80;66.00
11387;DHT22;5748;53.102;8.456;2023-10-19T12:33:10;12.80;66.00
11387;DHT22;5748;53.102;8.456;2023-10-19T12:35:38;12.90;66.10
11387;DHT22;5748;53.102;8.456;2023-10-19T12:38:15;12.80;65.80
11387;DHT22;5748;53.102;8.456;2023-10-19T12:40:45;12.80;65.80
11387;DHT22;5748;53.102;8.456;2023-10-19T12:43:13;12.80;65.80
11387;DHT22;5748;53.102;8.456;2023-10-19T12:45:41;12.90;65.70
11387;DHT22;5748;53.102;8.456;2023-10-19T12:48:13;12.80;65.60
11387;DHT22;5748;53.102;8.456;2023-10-19T12:50:40;12.90;65.70
11387;DHT22;5748;53.102;8.456;2023-10-19T12:53:09;12.90;65.80
11387;DHT22;5748;53.102;8.456;2023-10-19T12:55:36;12.90;65.80
11387;DHT22;5748;53.102;8.456;2023-10-19T12:58:05;12.90;65.50
11387;DHT22;5748;53.102;8.456;2023-10-19T13:00:36;12.90;65.60
11387;DHT22;5748;53.102;8.456;2023-10-19T13:03:07;12.80;65.50
11387;DHT22;5748;53.102;8.456;2023-10-19T13:05:34;12.80;65.60
11387;DHT22;5748;53.102;8.456;2023-10-19T13:08:04;12.80;65.40
11387;DHT22;5748;53.102;8.456;2023-10-19T13:10:33;12.80;65.50
11387;DHT22;5748;53.102;8.456;2023-10-19T13:13:05;12.80;65.50
11387;DHT22;5748;53.102;8.456;2023-10-19T13:15:35;12.80;65.70
11387;DHT22;5748;53.102;8.456;2023-10-19T13:18:04;12.80;65.80
11387;DHT22;5748;53.102;8.456;2023-10-19T13:20:33;12.70;65.70
11387;DHT22;5748;53.102;8.456;2023-10-19T13:23:00;12.70;65.70
11387;DHT22;5748;53.102;8.456;2023-10-19T13:25:28;12.70;65.70
11387;DHT22;5748;53.102;8.456;2023-10-19T13:28:09;12.70;65.70
11387;DHT22;5748;53.102;8.456;2023-10-19T13:30:37;12.70;65.70
11387;DHT22;5748;53.102;8.456;2023-10-19T13:33:05;12.60;65.50
11387;DHT22;5748;53.102;8.456;2023-10-19T13:35:35;12.60;65.70
11387;DHT22;5748;53.102;8.456;2023-10-19T13:38:03;12.60;66.00
11387;DHT22;5748;53.102;8.456;2023-10-19T13:40:30;12.60;65.70
11387;DHT22;5748;53.102;8.456;2023-10-19T13:42:57;12.60;65.50
11387;DHT22;5748;53.102;8.456;2023-10-19T13:45:26;12.50;65.70
11387;DHT22;5748;53.102;8.456;2023-10-19T13:47:53;12.50;65.70
11387;DHT22;5748;53.102;8.456;2023-10-19T13:50:22;12.50;65.60
11387;DHT22;5748;53.102;8.456;2023-10-19T13:52:50;12.50;66.20
11387;DHT22;5748;53.102;8.456;2023-10-19T13:55:18;12.40;65.70
11387;DHT22;5748;53.102;8.456;2023-10-19T13:57:46;12.40;65.90
11387;DHT22;5748;53.102;8.456;2023-10-19T14:00:14;12.40;65.90
11387;DHT22;5748;53.102;8.456;2023-10-19T14:02:50;12.40;65.80
11387;DHT22;5748;53.102;8.456;2023-10-19T14:05:18;12.40;65.90
11387;DHT22;5748;53.102;8.456;2023-10-19T14:07:45;12.40;65.80
11387;DHT22;5748;53.102;8.456;2023-10-19T14:10:13;12.30;65.90
11387;DHT22;5748;53.102;8.456;2023-10-19T14:12:40;12.30;66.10
11387;DHT22;5748;53.102;8.456;2023-10-19T14:15:13;12.30;66.00
11387;DHT22;5748;53.102;8.456;2023-10-19T14:17:41;12.30;66.00
11387;DHT22;5748;53.102;8.456;2023-10-19T14:20:10;12.30;66.00
11387;DHT22;5748;53.102;8.456;2023-10-19T14:22:40;12.30;66.10
11387;DHT22;5748;53.102;8.456;2023-10-19T14:25:07;12.30;66.20
11387;DHT22;5748;53.102;8.456;2023-10-19T14:27:38;12.30;66.20
11387;DHT22;5748;53.102;8.456;2023-10-19T14:30:07;12.30;66.10
11387;DHT22;5748;53.102;8.456;2023-10-19T14:32:37;12.30;66.10
11387;DHT22;5748;53.102;8.456;2023-10-19T14:35:06;12.30;66.20
11387;DHT22;5748;53.102;8.456;2023-10-19T14:37:39;12.30;66.30
11387;DHT22;5748;53.102;8.456;2023-10-19T14:40:10;12.30;66.30
11387;DHT22;5748;53.102;8.456;2023-10-19T14:42:38;12.40;66.50
11387;DHT22;5748;53.102;8.456;2023-10-19T14:45:07;12.40;66.40
11387;DHT22;5748;53.102;8.456;2023-10-19T14:47:36;12.40;66.00
11387;DHT22;5748;53.102;8.456;2023-10-19T14:50:09;12.40;66.10
11387;DHT22;5748;53.102;8.456;2023-10-19T14:52:40;12.40;66.10
11387;DHT22;5748;53.102;8.456;2023-10-19T14:55:08;12.40;66.00
11387;DHT22;5748;53.102;8.456;2023-10-19T14:57:36;12.40;66.00
11387;DHT22;5748;53.102;8.456;2023-10-19T15:00:06;12.40;66.00
11387;DHT22;5748;53.102;8.456;2023-10-19T15:02:41;12.40;66.00
11387;DHT22;5748;53.102;8.456;2023-10-19T15:05:09;12.40;65.90
11387;DHT22;5748;53.102;8.456;2023-10-19T15:07:40;12.30;66.10
11387;DHT22;5748;53.102;8.456;2023-10-19T15:10:10;12.30;66.20
11387;DHT22;5748;53.102;8.456;2023-10-19T15:12:38;12.30;65.90
11387;DHT22;5748;53.102;8.456;2023-10-19T15:15:06;12.30;65.90
11387;DHT22;5748;53.102;8.456;2023-10-19T15:17:34;12.30;65.90
11387;DHT22;5748;53.102;8.456;2023-10-19T15:20:03;12.30;66.40
11387;DHT22;5748;53.102;8.456;2023-10-19T15:22:32;12.20;66.50
11387;DHT22;5748;53.102;8.456;2023-10-19T15:25:04;12.20;66.10
11387;DHT22;5748;53.102;8.456;2023-10-19T15:27:33;12.20;66.50
11387;DHT22;5748;53.102;8.456;2023-10-19T15:30:00;12.20;66.30
11387;DHT22;5748;53.102;8.456;2023-10-19T15:32:28;12.10;66.80
11387;DHT22;5748;53.102;8.456;2023-10-19T15:34:56;12.10;66.30
11387;DHT22;5748;53.102;8.456;2023-10-19T15:37:23;12.10;66.10
11387;DHT22;5748;53.102;8.456;2023-10-19T15:39:50;12.10;66.20
11387;DHT22;5748;53.102;8.456;2023-10-19T15:42:19;12.10;66.30
11387;DHT22;5748;53.102;8.456;2023-10-19T15:44:47;12.20;66.40
11387;DHT22;5748;53.102;8.456;2023-10-19T15:47:15;12.10;66.50
11387;DHT22;5748;53.102;8.456;2023-10-19T15:49:46;12.10;66.20
11387;DHT22;5748;53.102;8.456;2023-10-19T15:52:17;12.10;66.40
11387;DHT22;5748;53.102;8.456;2023-10-19T15:54:45;12.20;66.40
11387;DHT22;5748;53.102;8.456;2023-10-19T15:57:13;12.10;67.20
11387;DHT22;5748;53.102;8.456;2023-10-19T15:59:41;12.10;66.90